createdAt,value
2022-07-31T00:00:49.077Z,3.17
2022-07-31T00:03:18.261Z,2.30
2022-07-31T00:05:46.077Z,2.20
2022-07-31T00:08:15.159Z,2.37
2022-07-31T00:10:42.939Z,2.40
2022-07-31T00:13:10.771Z,2.23
2022-07-31T00:15:38.588Z,2.20
2022-07-31T00:18:06.470Z,2.50
2022-07-31T00:20:35.930Z,2.30
2022-07-31T00:23:03.886Z,1.90
2022-07-31T00:25:32.054Z,2.50
2022-07-31T00:28:00.218Z,2.10
2022-07-31T00:30:28.002Z,2.27
2022-07-31T00:32:55.847Z,2.20
2022-07-31T00:35:23.860Z,2.50
2022-07-31T00:38:02.181Z,2.60
2022-07-31T00:40:48.172Z,2.33
2022-07-31T00:43:16.431Z,2.10
2022-07-31T00:45:44.683Z,2.33
2022-07-31T00:48:12.595Z,2.30
2022-07-31T00:50:40.594Z,2.13
2022-07-31T00:53:09.763Z,2.13
2022-07-31T00:55:51.387Z,2.20
2022-07-31T00:58:20.308Z,2.20
2022-07-31T01:00:48.995Z,2.30
2022-07-31T01:03:18.532Z,2.40
2022-07-31T01:05:46.375Z,2.03
2022-07-31T01:08:16.352Z,2.50
2022-07-31T01:10:53.255Z,2.17
2022-07-31T01:13:27.525Z,2.10
2022-07-31T01:15:56.514Z,2.20
2022-07-31T01:18:25.724Z,2.07
2022-07-31T01:20:56.567Z,2.23
2022-07-31T01:24:03.960Z,2.30
2022-07-31T01:26:42.173Z,2.07
2022-07-31T01:29:19.299Z,2.30
2022-07-31T01:31:50.691Z,2.10
2022-07-31T01:34:26.563Z,2.20
2022-07-31T01:37:01.651Z,2.40
2022-07-31T01:39:34.048Z,2.27
2022-07-31T01:42:06.085Z,2.30
2022-07-31T01:44:41.458Z,2.00
2022-07-31T01:47:10.456Z,2.40
2022-07-31T01:49:39.260Z,2.83
2022-07-31T01:52:08.487Z,2.50
2022-07-31T01:54:37.406Z,2.37
2022-07-31T01:57:07.083Z,2.50
2022-07-31T01:59:38.975Z,2.33
2022-07-31T02:02:13.318Z,2.70
2022-07-31T02:04:41.608Z,2.40
2022-07-31T02:07:10.968Z,2.63
2022-07-31T02:09:57.926Z,2.63
2022-07-31T02:12:32.130Z,2.50
2022-07-31T02:15:05.396Z,3.13
2022-07-31T02:17:33.858Z,2.90
2022-07-31T02:20:03.579Z,2.90
2022-07-31T02:22:31.415Z,3.17
2022-07-31T02:24:59.879Z,2.50
2022-07-31T02:27:57.040Z,2.90
2022-07-31T02:30:19.767Z,2.80
2022-07-31T02:32:49.464Z,2.63
2022-07-31T02:35:19.889Z,2.70
2022-07-31T02:37:51.302Z,2.97
2022-07-31T02:40:19.990Z,2.57
2022-07-31T02:42:49.012Z,2.20
2022-07-31T02:45:25.177Z,2.60
2022-07-31T02:47:53.110Z,2.17
2022-07-31T02:50:21.170Z,2.40
2022-07-31T02:52:49.179Z,2.57
2022-07-31T02:55:18.309Z,2.10
2022-07-31T02:57:48.089Z,2.60
2022-07-31T03:00:22.677Z,2.50
2022-07-31T03:02:53.798Z,2.23
2022-07-31T03:05:22.024Z,2.10
2022-07-31T03:07:50.511Z,2.23
2022-07-31T03:10:18.351Z,2.30
2022-07-31T03:12:49.935Z,2.27
2022-07-31T03:15:20.441Z,2.20
2022-07-31T03:17:49.866Z,2.60
2022-07-31T03:20:19.665Z,2.30
2022-07-31T03:22:47.877Z,2.27
2022-07-31T03:25:20.069Z,2.03
2022-07-31T03:27:56.404Z,2.30
2022-07-31T03:30:25.886Z,2.40
2022-07-31T03:32:54.002Z,2.20
2022-07-31T03:35:24.197Z,2.43
2022-07-31T03:37:52.250Z,2.20
2022-07-31T03:40:20.222Z,2.37
2022-07-31T03:42:49.798Z,2.27
2022-07-31T03:45:18.249Z,2.77
2022-07-31T03:47:46.243Z,2.10
2022-07-31T03:50:15.779Z,1.90
2022-07-31T03:52:46.160Z,2.50
2022-07-31T03:55:14.483Z,2.43
2022-07-31T03:57:42.921Z,2.80
2022-07-31T04:00:16.969Z,2.50
2022-07-31T04:02:46.157Z,2.30
2022-07-31T04:05:14.280Z,2.50
2022-07-31T04:07:42.105Z,2.50
2022-07-31T04:10:12.356Z,2.30
2022-07-31T04:12:40.277Z,2.27
2022-07-31T04:15:08.859Z,2.97
2022-07-31T04:17:37.191Z,2.97
2022-07-31T04:20:07.599Z,2.23
2022-07-31T04:22:35.703Z,2.27
2022-07-31T04:25:05.599Z,2.50
2022-07-31T04:27:36.517Z,2.60
2022-07-31T04:30:16.441Z,8.70
2022-07-31T04:32:44.347Z,9.70
2022-07-31T04:35:13.638Z,6.70
2022-07-31T04:37:48.561Z,5.87
2022-07-31T04:40:16.980Z,4.93
2022-07-31T04:42:46.186Z,5.60
2022-07-31T04:45:14.063Z,5.20
2022-07-31T04:47:41.926Z,3.27
2022-07-31T04:50:10.567Z,3.43
2022-07-31T04:52:38.390Z,3.17
2022-07-31T04:55:06.886Z,2.90
2022-07-31T04:57:34.709Z,2.67
2022-07-31T05:00:04.757Z,2.37
2022-07-31T05:02:32.612Z,2.43
2022-07-31T05:05:00.419Z,2.37
2022-07-31T05:07:29.032Z,2.20
2022-07-31T05:09:57.193Z,2.13
2022-07-31T05:12:25.094Z,2.73
2022-07-31T05:14:53.435Z,2.93
2022-07-31T05:17:22.642Z,4.50
2022-07-31T05:19:50.447Z,6.20
2022-07-31T05:22:18.934Z,4.27
2022-07-31T05:24:46.857Z,3.17
2022-07-31T05:27:14.706Z,2.50
2022-07-31T05:29:42.509Z,2.90
2022-07-31T05:32:10.549Z,2.30
2022-07-31T05:34:39.813Z,2.57
2022-07-31T05:37:07.888Z,2.70
2022-07-31T05:39:35.696Z,2.67
2022-07-31T05:42:03.642Z,1.77
2022-07-31T05:44:31.609Z,2.03
2022-07-31T05:49:28.908Z,2.30
2022-07-31T05:51:58.167Z,2.25
2022-07-31T05:54:25.986Z,2.40
2022-07-31T05:56:53.791Z,1.85
2022-07-31T05:59:21.592Z,1.42
2022-07-31T06:01:49.957Z,1.70
2022-07-31T06:04:17.810Z,1.70
2022-07-31T06:06:45.620Z,1.58
2022-07-31T06:09:14.832Z,1.75
2022-07-31T06:11:42.656Z,1.75
2022-07-31T06:14:10.535Z,1.65
2022-07-31T06:16:38.417Z,2.10
2022-07-31T06:19:06.225Z,1.70
2022-07-31T06:21:34.051Z,1.63
2022-07-31T06:24:02.378Z,2.10
2022-07-31T06:26:31.617Z,1.80
2022-07-31T06:28:59.453Z,1.58
2022-07-31T06:31:27.309Z,2.10
2022-07-31T06:33:55.161Z,1.60
2022-07-31T06:36:22.974Z,1.50
2022-07-31T06:38:50.852Z,1.60
2022-07-31T06:41:32.637Z,1.80
2022-07-31T06:44:01.815Z,1.83
2022-07-31T06:46:29.805Z,1.67
2022-07-31T06:48:57.736Z,1.60
2022-07-31T06:51:32.711Z,1.77
2022-07-31T06:54:01.109Z,1.70
2022-07-31T06:56:29.054Z,1.70
2022-07-31T06:58:56.925Z,1.80
2022-07-31T07:01:26.209Z,2.05
2022-07-31T07:03:54.658Z,1.80
2022-07-31T07:06:22.819Z,1.85
2022-07-31T07:08:51.023Z,1.30
2022-07-31T07:11:19.489Z,1.88
2022-07-31T07:13:47.547Z,2.30
2022-07-31T07:16:16.036Z,2.13
2022-07-31T07:18:45.206Z,1.90
2022-07-31T07:21:13.322Z,1.70
2022-07-31T07:23:41.383Z,2.00
2022-07-31T07:26:09.577Z,2.00
2022-07-31T07:28:37.641Z,2.05
2022-07-31T07:31:06.166Z,1.75
2022-07-31T07:33:41.790Z,1.75
2022-07-31T07:36:23.285Z,2.70
2022-07-31T07:38:53.574Z,2.00
2022-07-31T07:41:23.601Z,2.30
2022-07-31T07:43:52.569Z,2.15
2022-07-31T07:46:21.205Z,1.80
2022-07-31T07:48:50.695Z,1.92
2022-07-31T07:51:21.408Z,2.10
2022-07-31T07:53:49.385Z,2.22
2022-07-31T07:56:17.555Z,1.80
2022-07-31T07:58:45.601Z,2.20
2022-07-31T08:01:14.166Z,2.08
2022-07-31T08:03:48.521Z,2.03
2022-07-31T08:06:21.190Z,2.00
2022-07-31T08:08:49.004Z,2.10
2022-07-31T08:11:17.835Z,2.00
2022-07-31T08:13:50.598Z,2.40
2022-07-31T08:16:19.626Z,2.17
2022-07-31T08:18:47.623Z,1.60
2022-07-31T08:21:15.519Z,1.73
2022-07-31T08:23:44.736Z,1.88
2022-07-31T08:26:13.954Z,1.90
2022-07-31T08:28:50.491Z,1.60
2022-07-31T08:31:19.863Z,2.17
2022-07-31T08:33:48.418Z,1.90
2022-07-31T08:36:16.272Z,1.98
2022-07-31T08:38:45.523Z,1.90
2022-07-31T08:41:14.819Z,1.90
2022-07-31T08:44:00.396Z,1.90
2022-07-31T08:46:32.449Z,2.03
2022-07-31T08:49:03.788Z,1.70
2022-07-31T08:52:01.798Z,2.10
2022-07-31T08:54:27.434Z,1.90
2022-07-31T08:56:55.269Z,2.05
2022-07-31T08:59:23.168Z,2.03
2022-07-31T09:01:51.409Z,2.00
2022-07-31T09:04:19.268Z,1.90
2022-07-31T09:06:47.198Z,1.88
2022-07-31T09:09:17.828Z,1.63
2022-07-31T09:11:53.787Z,1.92
2022-07-31T09:14:29.434Z,2.15
2022-07-31T09:16:58.240Z,1.70
2022-07-31T09:19:51.724Z,1.75
2022-07-31T09:22:23.382Z,2.10
2022-07-31T09:24:51.613Z,1.83
2022-07-31T09:27:21.351Z,1.60
2022-07-31T09:29:50.025Z,2.08
2022-07-31T09:32:19.275Z,1.92
2022-07-31T09:34:47.980Z,1.95
2022-07-31T09:37:17.753Z,2.15
2022-07-31T09:39:52.196Z,1.80
2022-07-31T09:42:25.054Z,1.73
2022-07-31T09:44:53.235Z,2.08
2022-07-31T09:47:22.992Z,1.98
2022-07-31T09:49:55.536Z,1.70
2022-07-31T09:52:24.159Z,2.00
2022-07-31T09:55:02.736Z,1.77
2022-07-31T09:57:53.902Z,2.15
2022-07-31T10:00:21.902Z,2.15
2022-07-31T10:02:50.543Z,2.20
2022-07-31T10:05:19.475Z,2.00
2022-07-31T10:07:48.043Z,1.92
2022-07-31T10:10:17.083Z,1.75
2022-07-31T10:12:51.089Z,2.10
2022-07-31T10:15:21.705Z,2.10
2022-07-31T10:17:52.512Z,1.90
2022-07-31T10:20:22.611Z,1.80
2022-07-31T10:22:55.270Z,1.70
2022-07-31T10:25:26.383Z,1.90
2022-07-31T10:27:57.020Z,1.90
2022-07-31T10:30:28.953Z,2.00
2022-07-31T10:32:58.555Z,1.90
2022-07-31T10:35:26.806Z,1.70
2022-07-31T10:38:00.901Z,2.20
2022-07-31T10:40:37.747Z,2.00
2022-07-31T10:43:20.904Z,1.92
2022-07-31T10:45:51.486Z,1.83
2022-07-31T10:48:19.561Z,2.30
2022-07-31T10:50:48.168Z,2.10
2022-07-31T10:53:17.535Z,1.85
2022-07-31T10:55:46.049Z,1.95
2022-07-31T10:58:16.028Z,2.03
2022-07-31T11:00:45.467Z,2.25
2022-07-31T11:03:16.871Z,2.55
2022-07-31T11:06:02.003Z,2.00
2022-07-31T11:08:42.092Z,2.47
2022-07-31T11:11:11.271Z,2.00
2022-07-31T11:13:52.845Z,1.95
2022-07-31T11:16:20.995Z,1.90
2022-07-31T11:18:59.427Z,2.30
2022-07-31T11:21:38.848Z,2.05
2022-07-31T11:24:14.758Z,2.08
2022-07-31T11:26:52.064Z,2.05
2022-07-31T11:30:01.945Z,1.80
2022-07-31T11:32:24.830Z,2.00
2022-07-31T11:34:56.517Z,2.10
2022-07-31T11:37:27.502Z,1.95
2022-07-31T11:40:07.536Z,1.90
2022-07-31T11:42:44.570Z,1.70
2022-07-31T11:45:15.055Z,2.08
2022-07-31T11:48:11.736Z,1.88
2022-07-31T11:50:41.863Z,1.75
2022-07-31T11:53:09.803Z,1.90
2022-07-31T11:55:46.061Z,1.90
2022-07-31T11:58:15.193Z,2.00
2022-07-31T12:00:51.408Z,1.95
2022-07-31T12:03:20.467Z,1.90
2022-07-31T12:05:52.215Z,1.90
2022-07-31T12:08:22.017Z,2.00
2022-07-31T12:10:50.159Z,1.92
2022-07-31T12:13:19.483Z,1.70
2022-07-31T12:15:58.582Z,2.33
2022-07-31T12:18:28.712Z,2.42
2022-07-31T12:20:59.704Z,1.83
2022-07-31T12:23:41.357Z,1.90
2022-07-31T12:26:12.147Z,1.92
2022-07-31T12:28:40.064Z,1.75
2022-07-31T12:31:07.849Z,1.80
2022-07-31T12:33:42.455Z,1.85
2022-07-31T12:36:16.168Z,1.80
2022-07-31T12:38:47.796Z,1.98
2022-07-31T12:41:17.519Z,1.70
2022-07-31T12:43:51.298Z,2.03
2022-07-31T12:46:21.444Z,1.83
2022-07-31T12:48:49.331Z,1.95
2022-07-31T12:51:20.182Z,1.90
2022-07-31T12:54:08.418Z,1.80
2022-07-31T12:56:37.577Z,1.60
2022-07-31T12:59:06.469Z,1.80
2022-07-31T13:01:34.544Z,1.88
2022-07-31T13:04:03.530Z,2.15
2022-07-31T13:06:33.110Z,2.00
2022-07-31T13:09:00.923Z,2.10
2022-07-31T13:11:46.034Z,1.80
2022-07-31T13:14:15.797Z,2.05
2022-07-31T13:16:43.621Z,2.25
2022-07-31T13:19:11.596Z,1.95
2022-07-31T13:21:48.420Z,2.10
2022-07-31T13:24:16.781Z,1.98
2022-07-31T13:26:45.342Z,1.70
2022-07-31T13:29:13.975Z,1.88
2022-07-31T13:31:41.788Z,1.83
2022-07-31T13:34:09.704Z,1.70
2022-07-31T13:36:39.407Z,2.00
2022-07-31T13:39:09.188Z,1.90
2022-07-31T13:41:39.181Z,1.75
2022-07-31T13:44:07.984Z,2.00
2022-07-31T13:46:35.853Z,1.75
2022-07-31T13:49:08.151Z,1.75
2022-07-31T13:51:36.393Z,1.90
2022-07-31T13:54:04.618Z,2.08
2022-07-31T13:56:42.370Z,2.30
2022-07-31T13:59:12.560Z,1.98
2022-07-31T14:02:03.880Z,1.95
2022-07-31T14:04:31.424Z,1.90
2022-07-31T14:07:00.930Z,1.90
2022-07-31T14:09:29.875Z,1.75
2022-07-31T14:11:59.147Z,1.77
2022-07-31T14:14:31.810Z,2.00
2022-07-31T14:17:00.107Z,1.70
2022-07-31T14:19:28.021Z,1.88
2022-07-31T14:21:57.564Z,2.00
2022-07-31T14:24:25.699Z,1.80
2022-07-31T14:26:53.723Z,1.90
2022-07-31T14:29:22.860Z,1.70
2022-07-31T14:31:51.670Z,2.25
2022-07-31T14:34:19.533Z,1.98
2022-07-31T14:36:47.359Z,1.80
2022-07-31T14:39:15.233Z,2.00
2022-07-31T14:41:43.315Z,2.10
2022-07-31T14:44:11.110Z,2.08
2022-07-31T14:46:40.258Z,2.17
2022-07-31T14:49:08.628Z,1.90
2022-07-31T14:51:36.523Z,2.00
2022-07-31T14:54:05.095Z,2.20
2022-07-31T14:56:59.714Z,1.90
2022-07-31T14:59:27.106Z,1.65
2022-07-31T15:01:56.529Z,1.90
2022-07-31T15:04:24.391Z,2.17
2022-07-31T15:07:03.071Z,2.05
2022-07-31T15:09:40.415Z,2.03
2022-07-31T15:12:08.980Z,2.25
2022-07-31T15:14:36.766Z,1.90
2022-07-31T15:17:06.260Z,1.52
2022-07-31T15:19:34.409Z,2.17
2022-07-31T15:22:15.721Z,1.90
2022-07-31T15:24:48.794Z,1.90
2022-07-31T15:27:17.959Z,1.92
2022-07-31T15:30:04.087Z,2.25
2022-07-31T15:32:36.413Z,1.98
2022-07-31T15:35:04.976Z,1.98
2022-07-31T15:37:35.002Z,1.98
2022-07-31T15:40:05.367Z,2.38
2022-07-31T15:42:33.655Z,2.00
2022-07-31T15:45:01.579Z,2.08
2022-07-31T15:47:29.660Z,1.83
2022-07-31T15:49:58.917Z,2.05
2022-07-31T15:52:26.858Z,1.98
2022-07-31T15:54:54.825Z,1.90
2022-07-31T15:57:23.763Z,2.10
2022-07-31T15:59:54.244Z,1.90
2022-07-31T16:02:23.106Z,2.03
2022-07-31T16:04:52.933Z,1.90
2022-07-31T16:08:28.539Z,1.95
2022-07-31T16:10:17.692Z,2.08
2022-07-31T16:12:46.493Z,1.90
2022-07-31T16:15:15.015Z,2.05
2022-07-31T16:17:44.562Z,2.22
2022-07-31T16:20:25.253Z,2.20
2022-07-31T16:22:57.955Z,1.67
2022-07-31T16:25:26.656Z,2.20
2022-07-31T16:27:55.007Z,1.90
2022-07-31T16:30:27.482Z,2.10
2022-07-31T16:32:55.575Z,2.20
2022-07-31T16:35:26.065Z,2.35
2022-07-31T16:37:55.651Z,2.33
2022-07-31T16:40:28.533Z,2.13
2022-07-31T16:43:03.001Z,2.20
2022-07-31T16:45:49.968Z,1.90
2022-07-31T16:48:17.910Z,1.67
2022-07-31T16:50:48.208Z,2.00
2022-07-31T16:54:11.199Z,2.30
2022-07-31T16:56:11.753Z,2.30
2022-07-31T16:58:40.292Z,2.10
2022-07-31T17:01:57.905Z,2.00
2022-07-31T17:04:00.294Z,1.85
2022-07-31T17:06:36.346Z,1.88
2022-07-31T17:09:15.923Z,2.17
2022-07-31T17:11:45.851Z,2.03
2022-07-31T17:14:13.661Z,2.13
2022-07-31T17:16:46.844Z,2.47
2022-07-31T17:19:15.754Z,2.10
2022-07-31T17:21:44.658Z,2.22
2022-07-31T17:24:15.758Z,1.90
2022-07-31T17:26:45.262Z,2.10
2022-07-31T17:29:13.557Z,1.90
2022-07-31T17:31:41.421Z,2.38
2022-07-31T17:34:09.596Z,2.17
2022-07-31T17:36:37.825Z,2.03
2022-07-31T17:39:06.253Z,2.00
2022-07-31T17:41:39.047Z,2.13
2022-07-31T17:44:06.855Z,2.03
2022-07-31T17:46:36.507Z,2.10
2022-07-31T17:49:08.172Z,2.10
2022-07-31T17:51:36.173Z,1.95
2022-07-31T17:54:04.770Z,2.00
2022-07-31T17:56:32.544Z,2.55
2022-07-31T17:59:05.678Z,2.40
2022-07-31T18:01:34.460Z,2.50
2022-07-31T18:04:02.662Z,2.10
2022-07-31T18:06:30.518Z,2.45
2022-07-31T18:08:58.883Z,4.45
2022-07-31T18:11:26.862Z,2.40
2022-07-31T18:13:55.475Z,2.30
2022-07-31T18:16:30.123Z,2.03
2022-07-31T18:18:58.003Z,2.03
2022-07-31T18:21:25.813Z,2.35
2022-07-31T18:23:53.702Z,2.20
2022-07-31T18:26:22.524Z,2.20
2022-07-31T18:28:50.615Z,2.10
2022-07-31T18:31:34.966Z,1.90
2022-07-31T18:34:05.781Z,2.20
2022-07-31T18:36:34.044Z,2.05
2022-07-31T18:39:02.546Z,2.33
2022-07-31T18:41:30.569Z,2.17
2022-07-31T18:43:58.992Z,2.00
2022-07-31T18:46:27.027Z,2.40
2022-07-31T18:48:56.469Z,2.08
2022-07-31T18:51:26.394Z,2.25
2022-07-31T18:53:54.948Z,2.30
2022-07-31T18:56:23.594Z,2.47
2022-07-31T18:58:51.861Z,2.40
2022-07-31T19:01:19.810Z,2.42
2022-07-31T19:03:47.787Z,2.13
2022-07-31T19:06:16.227Z,2.67
2022-07-31T19:08:46.080Z,2.53
2022-07-31T19:11:13.989Z,2.20
2022-07-31T19:13:41.897Z,2.38
2022-07-31T19:16:09.751Z,2.10
2022-07-31T19:18:40.255Z,2.63
2022-07-31T19:21:21.155Z,2.38
2022-07-31T19:23:53.329Z,2.22
2022-07-31T19:26:22.061Z,2.30
2022-07-31T19:28:49.973Z,2.50
2022-07-31T19:31:18.296Z,2.30
2022-07-31T19:33:46.186Z,2.50
2022-07-31T19:36:15.314Z,2.50
2022-07-31T19:38:44.482Z,2.40
2022-07-31T19:41:15.546Z,2.47
2022-07-31T19:43:44.620Z,2.55
2022-07-31T19:46:13.005Z,2.30
2022-07-31T19:48:43.235Z,2.45
2022-07-31T19:51:11.936Z,2.10
2022-07-31T19:53:39.917Z,2.40
2022-07-31T19:56:07.783Z,2.45
2022-07-31T19:58:38.305Z,2.35
2022-07-31T20:01:06.997Z,2.38
2022-07-31T20:03:35.740Z,2.17
2022-07-31T20:06:04.684Z,2.28
2022-07-31T20:08:33.321Z,2.20
2022-07-31T20:11:03.457Z,2.78
2022-07-31T20:13:31.959Z,2.05
2022-07-31T20:16:01.561Z,2.80
2022-07-31T20:18:30.498Z,2.70
2022-07-31T20:21:02.520Z,2.70
2022-07-31T20:23:34.066Z,2.95
2022-07-31T20:26:02.447Z,2.60
2022-07-31T20:28:30.406Z,2.53
2022-07-31T20:30:58.675Z,2.97
2022-07-31T20:33:27.879Z,2.50
2022-07-31T20:35:55.682Z,2.70
2022-07-31T20:38:24.945Z,2.50
2022-07-31T20:40:56.021Z,2.90
2022-07-31T20:43:24.885Z,2.50
2022-07-31T20:45:53.438Z,2.43
2022-07-31T20:48:24.188Z,2.23
2022-07-31T20:50:53.973Z,2.70
2022-07-31T20:53:22.982Z,2.60
2022-07-31T20:55:50.891Z,2.90
2022-07-31T20:58:19.427Z,2.57
2022-07-31T21:00:48.283Z,2.77
2022-07-31T21:03:16.671Z,2.70
2022-07-31T21:05:44.627Z,2.20
2022-07-31T21:08:13.813Z,2.50
2022-07-31T21:10:41.664Z,2.47
2022-07-31T21:13:09.754Z,2.60
2022-07-31T21:15:42.394Z,2.20
2022-07-31T21:18:12.702Z,2.50
2022-07-31T21:20:52.177Z,2.73
2022-07-31T21:23:24.369Z,2.80
2022-07-31T21:25:53.237Z,2.77
2022-07-31T21:28:22.142Z,2.60
2022-07-31T21:30:50.480Z,2.30
2022-07-31T21:33:18.839Z,2.20
2022-07-31T21:35:47.350Z,2.20
2022-07-31T21:38:16.152Z,2.30
2022-07-31T21:40:46.611Z,2.10
2022-07-31T21:43:16.622Z,2.63
2022-07-31T21:45:55.329Z,2.17
2022-07-31T21:48:27.177Z,2.33
2022-07-31T21:50:55.704Z,2.07
2022-07-31T21:53:23.937Z,2.47
2022-07-31T21:55:53.131Z,2.00
2022-07-31T21:58:20.994Z,2.03
2022-07-31T22:00:48.903Z,2.20
2022-07-31T22:03:16.852Z,2.10
2022-07-31T22:06:02.347Z,2.00
2022-07-31T22:08:30.251Z,1.90
2022-07-31T22:10:59.425Z,2.40
2022-07-31T22:13:27.315Z,2.17
2022-07-31T22:16:00.189Z,2.00
2022-07-31T22:18:29.740Z,2.23
2022-07-31T22:20:58.096Z,1.90
2022-07-31T22:23:27.415Z,1.90
2022-07-31T22:25:55.750Z,2.00
2022-07-31T22:28:26.465Z,1.80
2022-07-31T22:30:54.987Z,2.00
2022-07-31T22:33:22.992Z,2.10
2022-07-31T22:35:59.692Z,1.83
2022-07-31T22:38:29.582Z,2.07
2022-07-31T22:40:57.681Z,2.07
2022-07-31T22:44:14.159Z,2.30
2022-07-31T22:46:15.416Z,2.03
2022-07-31T22:48:45.254Z,1.80
2022-07-31T22:51:14.813Z,2.10
2022-07-31T22:53:43.475Z,2.10
2022-07-31T22:56:11.713Z,2.17
2022-07-31T22:58:40.918Z,1.97
2022-07-31T23:01:08.782Z,2.07
2022-07-31T23:03:36.608Z,1.80
2022-07-31T23:06:31.559Z,1.80
2022-07-31T23:08:54.650Z,1.60
2022-07-31T23:11:24.371Z,1.70
2022-07-31T23:13:53.730Z,1.80
2022-07-31T23:16:22.316Z,1.70
2022-07-31T23:18:50.684Z,1.97
2022-07-31T23:21:19.377Z,1.70
2022-07-31T23:23:48.766Z,1.60
2022-07-31T23:26:17.940Z,1.80
2022-07-31T23:28:45.774Z,1.77
2022-07-31T23:31:15.134Z,1.83
2022-07-31T23:33:43.280Z,1.80
2022-07-31T23:36:11.185Z,2.23
2022-07-31T23:38:39.298Z,2.07
2022-07-31T23:41:07.205Z,1.70
2022-07-31T23:43:34.337Z,2.00
2022-07-31T23:46:02.224Z,1.90
2022-07-31T23:48:31.409Z,1.93
2022-07-31T23:50:59.441Z,2.07
2022-07-31T23:53:27.327Z,1.87
2022-07-31T23:55:55.164Z,2.00
2022-07-31T23:58:23.013Z,2.10
